Onancock, VA (23417)

2:15 PM EDT on March 28, 2015 (GMT -0400)
On Deep Creek | | Change Station
CLOSE
Current Station
Personal Weather Station
Location: Onancock, VA
Elevation: 16 ft
Nearby Weather Stations

Elev 16 ft 37.77 °N, 75.75 °W | Updated 22 minutes ago

Overcast
Overcast
38.7 °F
Feels Like 30 °F
N
16.1
Wind Variable Wind from NNW

Today
High -- | Low -- °F
--% Chance of Precip.
Yesterday
High -- | Low -- °F
Precip. -- in
6:54 AM 7:22 PM
Waxing Gibbous, 64% visible
Pressure 29.99 in
Visibility 10.0 miles
Clouds Overcast 7500 ft
Windchill 30 °F
Dew Point 17 °F
Humidity 41%
Rainfall 0.00 in
Snow Depth Not available.
UV 3 out of 12
Pollen 9.50 out of 12
Air Quality Not available.
Flu Activity Not available.
METAR KMFV 281755Z AUTO 32016G29KT 10SM OVC075 03/M11 A2999 RMK AO2

More Conditions Fewer Conditions

Pressure 29.99 in
Visibility 10.0 miles
Clouds Overcast 7500 ft
Windchill 30 °F
Dew Point 17 °F
Humidity 41%
Rainfall 0.00 in
Snow Depth Not available.
UV 3 out of 12
Pollen 9.50 out of 12
Air Quality Not available.
Flu Activity Not available.
METAR KMFV 281755Z AUTO 32016G29KT 10SM OVC075 03/M11 A2999 RMK AO2

More Conditions Fewer Conditions

10-Day Weather Forecast

Almanac

Astronomy

Mar. 28, 2015 Rise Set
Actual Time
Civil Twilight
Nautical Twilight
Astronomical Twilight
Moon
Length of Visible Light
Length of Day
Tomorrow will be .
, % of the Moon is Illuminated

Today's Extremes

State Highs State Lows

Community

WunderPhotos

Upload Photos

1,809,050 photos uploaded!

WunderBlogs® & News

Nearby

Air Quality

  Air Quality AQ Index Pollutant
Not available.

Snow Depth

Station Depth Elevation

Earthquake Activity

City Distance Mag. Time & Date
Minimum magnitude displayed is 2.5.

Coastal Water Temperatures

Place Temperature

Stations

Nearby Weather Stations

Station Location Temp. Windchill Dew Point Humidity Wind Precip. Elev Updated Type